KMAO

Details ICAO KMAO
Name MARION CO
Region United States
Timezone America/New_York (UTC-5.0)
Plans Departing 0
Arriving 0
Stats Elevation 92 ft / 28 m (AMSL)
Location 34.181167° -79.334716°
Runways 1
Magnetic Variation 8.547° W
Sunrise 2017-12-15 12:17:24 UTC / 2017-12-15 07:17:24 Local
Sunset 2017-12-15 22:10:35 UTC / 2017-12-15 17:10:35 Local
Advertisement - Login to hide

Runways

ID Width Length Bearing (true) Bearing (mag) Surface Threshold Offset Overrun Length
04 100 ft / 30 m 4,509 ft / 1,374 m 34.50° 43.05° Asphalt 0 ft / 0 m 0 ft / 0 m
22 100 ft / 30 m 4,509 ft / 1,374 m 214.51° 223.06° Asphalt 0 ft / 0 m 0 ft / 0 m

Map

Weather


0- 5 10 15 20 25 30 35+ Temperature / ° C

Clouds and Precipitation
Forecast for 2017-12-16 06:00 UTC. Updated 31 minutes ago

Ground ~20,000 ft ~40,000 ft Winds

METAR

KMAO 160135Z AUTO 35004KT 10SM CLR 08/00 A3006 RMK AO2

TAF

Not found

Frequencies

Unicom 122.80 MHz CTAF/UNICOM
Approach 135.25 MHz FLORENCE APP/DEP
Warning: Do not use this data for real-world aviation or navigation. No guarantee of current accuracy is given.